Terminal Aerodrome Forecast
Issued by NWS

Home | Current Version | Previous Version | Graphics & Text | Print | Product List | Glossary On
Versions: 1 2 3 4 5 6 7 8 9 10 11 12 13 14 15
000
FTUS42 KMHX 292300
TAFOAJ
TAF
KOAJ 292331Z 3000/3024 06002KT P6SM SCT030
     FM300800 VRB02KT 3SM BR BKN005
     FM301300 14006KT P6SM SCT040
      AMD LTD TO CLD VIS AND WIND=

USA.gov is the U.S. government's official web portal to all federal, state and local government web resources and services.